Edmonton Intl Arpt, Alberta

5:52 AM MST on December 08, 2016 (GMT -0700)
Willow Park | | Change Station

Elev 2385 ft 53.27 °N, 113.56 °W | Updated 4 minutes ago

Light Snow
Light Snow Mist
-8.0 °F
Feels Like -8 °F
N
0.6
Wind Variable Wind from North
Gusts 1.9 mph

Today
High -- | Low -- °F
--% Chance of Precip.
Yesterday
High -- | Low -- °F
Precip. -- in
Pressure 30.94 in
Visibility 1.5 miles
Clouds Mostly Cloudy 3100 ft
Windchill -8 °F
Dew Point -14 °F
Humidity 74%
Rainfall 0.00 in
Snow Depth Not available.
8:36 AM 4:16 PM
Waxing Gibbous, 63% visible
SPECI CYEG 081233Z 00000KT 1 1/2SM -SN BR BKN031 M26/M29 A3068 RMK SC7 SLP475
Pressure 30.94 in
Visibility 1.5 miles
Clouds Mostly Cloudy 3100 ft
Windchill -8 °F
Dew Point -14 °F
Humidity 74%
Rainfall 0.00 in
Snow Depth Not available.
8:36 AM 4:16 PM
Waxing Gibbous, 63% visible
SPECI CYEG 081233Z 00000KT 1 1/2SM -SN BR BKN031 M26/M29 A3068 RMK SC7 SLP475

10-Day Weather Forecast

Almanac

Astronomy

Dec. 08, 2016 Rise Set
Actual Time
Civil Twilight
Nautical Twilight
Astronomical Twilight
Moon
Length of Visible Light
Length of Day
Tomorrow will be .
, % of the Moon is Illuminated

Today's Extremes

Country Highs Country Lows

Community

WunderPhotos

Upload Photos

1,956,267 photos uploaded!

WunderBlog® & News

Nearby

Air Quality

  Air Quality AQ Index Pollutant
Not available.

Snow Depth

Station Depth Elevation

Earthquake Activity

City Distance Mag. Time & Date
Minimum magnitude displayed is 2.5.

Coastal Water Temperatures

Place Temperature

Stations

Nearby Weather Stations

Station Location Temp. Windchill Dew Point Humidity Wind Precip. Elev Updated Type
                   

Watches & Warnings

There are currently no watches in effect.